sensor_id;sensor_type;location;lat;lon;timestamp;P1;durP1;ratioP1;P2;durP2;ratioP2
52816;SDS011;38687;43.330;21.924;2023-07-02T00:01:33;5.55;;;3.17;;
52816;SDS011;38687;43.330;21.924;2023-07-02T00:03:58;6.00;;;3.28;;
52816;SDS011;38687;43.330;21.924;2023-07-02T00:06:24;7.03;;;3.58;;
52816;SDS011;38687;43.330;21.924;2023-07-02T00:08:53;5.22;;;3.00;;
52816;SDS011;38687;43.330;21.924;2023-07-02T00:11:21;6.60;;;3.47;;
52816;SDS011;38687;43.330;21.924;2023-07-02T00:13:47;6.50;;;3.60;;
52816;SDS011;38687;43.330;21.924;2023-07-02T00:16:13;4.60;;;3.00;;
52816;SDS011;38687;43.330;21.924;2023-07-02T00:18:38;9.10;;;3.97;;
52816;SDS011;38687;43.330;21.924;2023-07-02T00:21:05;4.63;;;3.17;;
52816;SDS011;38687;43.330;21.924;2023-07-02T00:23:30;8.27;;;3.90;;
52816;SDS011;38687;43.330;21.924;2023-07-02T00:25:56;7.53;;;4.10;;
52816;SDS011;38687;43.330;21.924;2023-07-02T00:28:28;5.53;;;3.85;;
52816;SDS011;38687;43.330;21.924;2023-07-02T00:30:54;7.53;;;3.88;;
52816;SDS011;38687;43.330;21.924;2023-07-02T00:33:22;4.70;;;3.28;;
52816;SDS011;38687;43.330;21.924;2023-07-02T00:35:52;6.05;;;4.18;;
52816;SDS011;38687;43.330;21.924;2023-07-02T00:38:25;5.30;;;3.70;;
52816;SDS011;38687;43.330;21.924;2023-07-02T00:40:51;6.32;;;3.72;;
52816;SDS011;38687;43.330;21.924;2023-07-02T00:43:19;8.48;;;3.85;;
52816;SDS011;38687;43.330;21.924;2023-07-02T00:45:45;7.78;;;3.90;;
52816;SDS011;38687;43.330;21.924;2023-07-02T00:48:10;9.00;;;4.38;;
52816;SDS011;38687;43.330;21.924;2023-07-02T00:50:36;8.27;;;3.97;;
52816;SDS011;38687;43.330;21.924;2023-07-02T00:53:02;6.35;;;4.22;;
52816;SDS011;38687;43.330;21.924;2023-07-02T00:55:27;6.78;;;4.35;;
52816;SDS011;38687;43.330;21.924;2023-07-02T00:57:53;8.63;;;4.60;;
52816;SDS011;38687;43.330;21.924;2023-07-02T01:00:18;8.30;;;4.53;;
52816;SDS011;38687;43.330;21.924;2023-07-02T01:02:52;6.63;;;4.43;;
52816;SDS011;38687;43.330;21.924;2023-07-02T01:05:22;7.28;;;4.38;;
52816;SDS011;38687;43.330;21.924;2023-07-02T01:07:51;7.65;;;4.35;;
52816;SDS011;38687;43.330;21.924;2023-07-02T01:10:17;6.97;;;4.05;;
52816;SDS011;38687;43.330;21.924;2023-07-02T01:12:42;7.88;;;4.40;;
52816;SDS011;38687;43.330;21.924;2023-07-02T01:15:12;6.47;;;3.88;;
52816;SDS011;38687;43.330;21.924;2023-07-02T01:17:37;7.57;;;4.22;;
52816;SDS011;38687;43.330;21.924;2023-07-02T01:20:09;6.32;;;4.20;;
52816;SDS011;38687;43.330;21.924;2023-07-02T01:22:35;7.38;;;4.25;;
52816;SDS011;38687;43.330;21.924;2023-07-02T01:25:04;7.03;;;4.13;;
52816;SDS011;38687;43.330;21.924;2023-07-02T01:27:31;6.82;;;4.03;;
52816;SDS011;38687;43.330;21.924;2023-07-02T01:30:00;5.78;;;3.92;;
52816;SDS011;38687;43.330;21.924;2023-07-02T01:32:25;7.88;;;4.57;;
52816;SDS011;38687;43.330;21.924;2023-07-02T01:34:54;5.60;;;3.63;;
52816;SDS011;38687;43.330;21.924;2023-07-02T01:37:19;7.25;;;4.78;;
52816;SDS011;38687;43.330;21.924;2023-07-02T01:39:45;6.93;;;4.05;;
52816;SDS011;38687;43.330;21.924;2023-07-02T01:42:12;7.68;;;4.70;;
52816;SDS011;38687;43.330;21.924;2023-07-02T01:44:45;6.28;;;4.10;;
52816;SDS011;38687;43.330;21.924;2023-07-02T01:47:12;8.00;;;4.43;;
52816;SDS011;38687;43.330;21.924;2023-07-02T01:49:38;6.63;;;4.65;;
52816;SDS011;38687;43.330;21.924;2023-07-02T01:52:04;10.30;;;4.82;;
52816;SDS011;38687;43.330;21.924;2023-07-02T01:54:30;8.45;;;4.80;;
52816;SDS011;38687;43.330;21.924;2023-07-02T01:56:57;5.13;;;4.30;;
52816;SDS011;38687;43.330;21.924;2023-07-02T01:59:22;6.88;;;4.55;;
52816;SDS011;38687;43.330;21.924;2023-07-02T02:01:51;7.72;;;4.80;;
52816;SDS011;38687;43.330;21.924;2023-07-02T02:04:17;9.23;;;4.82;;
52816;SDS011;38687;43.330;21.924;2023-07-02T02:06:42;7.13;;;4.10;;
52816;SDS011;38687;43.330;21.924;2023-07-02T02:09:08;10.98;;;4.43;;
52816;SDS011;38687;43.330;21.924;2023-07-02T02:11:42;7.82;;;3.95;;
52816;SDS011;38687;43.330;21.924;2023-07-02T02:14:09;7.18;;;4.03;;
52816;SDS011;38687;43.330;21.924;2023-07-02T02:16:34;8.10;;;5.00;;
52816;SDS011;38687;43.330;21.924;2023-07-02T02:19:00;8.63;;;3.90;;
52816;SDS011;38687;43.330;21.924;2023-07-02T02:21:29;5.63;;;4.25;;
52816;SDS011;38687;43.330;21.924;2023-07-02T02:23:55;6.10;;;4.43;;
52816;SDS011;38687;43.330;21.924;2023-07-02T02:26:21;5.95;;;4.05;;
52816;SDS011;38687;43.330;21.924;2023-07-02T02:28:47;10.77;;;4.45;;
52816;SDS011;38687;43.330;21.924;2023-07-02T02:31:13;6.63;;;4.10;;
52816;SDS011;38687;43.330;21.924;2023-07-02T02:33:39;7.45;;;4.10;;
52816;SDS011;38687;43.330;21.924;2023-07-02T02:36:08;7.65;;;4.75;;
52816;SDS011;38687;43.330;21.924;2023-07-02T02:38:33;6.90;;;4.40;;
52816;SDS011;38687;43.330;21.924;2023-07-02T02:40:59;7.15;;;4.38;;
52816;SDS011;38687;43.330;21.924;2023-07-02T02:43:25;6.00;;;3.83;;
52816;SDS011;38687;43.330;21.924;2023-07-02T02:45:51;8.05;;;4.32;;
52816;SDS011;38687;43.330;21.924;2023-07-02T02:48:19;7.88;;;4.57;;
52816;SDS011;38687;43.330;21.924;2023-07-02T02:50:47;5.78;;;4.30;;
52816;SDS011;38687;43.330;21.924;2023-07-02T02:53:12;7.47;;;4.70;;
52816;SDS011;38687;43.330;21.924;2023-07-02T02:55:38;7.50;;;4.60;;
52816;SDS011;38687;43.330;21.924;2023-07-02T02:58:03;6.47;;;4.25;;
52816;SDS011;38687;43.330;21.924;2023-07-02T03:00:32;8.10;;;4.90;;
52816;SDS011;38687;43.330;21.924;2023-07-02T03:02:58;8.38;;;5.05;;
52816;SDS011;38687;43.330;21.924;2023-07-02T03:05:24;8.68;;;4.75;;
52816;SDS011;38687;43.330;21.924;2023-07-02T03:07:50;7.30;;;4.53;;
52816;SDS011;38687;43.330;21.924;2023-07-02T03:10:18;9.73;;;5.07;;
52816;SDS011;38687;43.330;21.924;2023-07-02T03:12:44;11.30;;;4.38;;
52816;SDS011;38687;43.330;21.924;2023-07-02T03:15:09;7.28;;;4.50;;
52816;SDS011;38687;43.330;21.924;2023-07-02T03:17:35;8.60;;;4.22;;
52816;SDS011;38687;43.330;21.924;2023-07-02T03:20:01;9.80;;;4.40;;
52816;SDS011;38687;43.330;21.924;2023-07-02T03:22:32;8.77;;;4.70;;
52816;SDS011;38687;43.330;21.924;2023-07-02T03:24:57;9.88;;;4.65;;
52816;SDS011;38687;43.330;21.924;2023-07-02T03:27:22;8.20;;;4.57;;
52816;SDS011;38687;43.330;21.924;2023-07-02T03:29:48;7.07;;;4.50;;
52816;SDS011;38687;43.330;21.924;2023-07-02T03:32:13;8.75;;;4.20;;
52816;SDS011;38687;43.330;21.924;2023-07-02T03:34:49;7.60;;;4.78;;
52816;SDS011;38687;43.330;21.924;2023-07-02T03:39:40;7.60;;;4.43;;
52816;SDS011;38687;43.330;21.924;2023-07-02T03:42:05;7.30;;;4.65;;
52816;SDS011;38687;43.330;21.924;2023-07-02T03:44:31;6.55;;;4.10;;
52816;SDS011;38687;43.330;21.924;2023-07-02T03:46:56;8.32;;;4.55;;
52816;SDS011;38687;43.330;21.924;2023-07-02T03:49:22;7.00;;;4.45;;
52816;SDS011;38687;43.330;21.924;2023-07-02T03:51:47;7.55;;;4.40;;
52816;SDS011;38687;43.330;21.924;2023-07-02T03:54:13;8.15;;;4.13;;
52816;SDS011;38687;43.330;21.924;2023-07-02T03:56:38;6.88;;;4.55;;
52816;SDS011;38687;43.330;21.924;2023-07-02T03:59:10;8.85;;;4.60;;
52816;SDS011;38687;43.330;21.924;2023-07-02T04:01:35;7.50;;;4.68;;
52816;SDS011;38687;43.330;21.924;2023-07-02T04:04:00;7.90;;;3.85;;
52816;SDS011;38687;43.330;21.924;2023-07-02T04:06:26;7.55;;;4.80;;
52816;SDS011;38687;43.330;21.924;2023-07-02T04:08:52;6.13;;;4.18;;
52816;SDS011;38687;43.330;21.924;2023-07-02T04:11:17;6.10;;;3.92;;
52816;SDS011;38687;43.330;21.924;2023-07-02T04:13:45;6.53;;;4.63;;
52816;SDS011;38687;43.330;21.924;2023-07-02T04:16:14;9.05;;;5.10;;
52816;SDS011;38687;43.330;21.924;2023-07-02T04:18:39;8.48;;;4.95;;
52816;SDS011;38687;43.330;21.924;2023-07-02T04:21:05;7.63;;;4.53;;
52816;SDS011;38687;43.330;21.924;2023-07-02T04:23:30;10.45;;;4.78;;
52816;SDS011;38687;43.330;21.924;2023-07-02T04:25:56;7.30;;;4.38;;
52816;SDS011;38687;43.330;21.924;2023-07-02T04:28:21;7.15;;;4.05;;
52816;SDS011;38687;43.330;21.924;2023-07-02T04:30:49;6.22;;;3.15;;
52816;SDS011;38687;43.330;21.924;2023-07-02T04:33:20;7.88;;;3.83;;
52816;SDS011;38687;43.330;21.924;2023-07-02T04:35:45;7.90;;;3.67;;
52816;SDS011;38687;43.330;21.924;2023-07-02T04:38:11;7.03;;;3.53;;
52816;SDS011;38687;43.330;21.924;2023-07-02T04:40:37;6.47;;;3.67;;
52816;SDS011;38687;43.330;21.924;2023-07-02T04:43:02;4.70;;;3.78;;
52816;SDS011;38687;43.330;21.924;2023-07-02T04:45:33;5.63;;;4.03;;
52816;SDS011;38687;43.330;21.924;2023-07-02T04:48:01;7.40;;;3.80;;
52816;SDS011;38687;43.330;21.924;2023-07-02T04:50:31;5.97;;;3.67;;
52816;SDS011;38687;43.330;21.924;2023-07-02T04:52:56;6.35;;;3.60;;
52816;SDS011;38687;43.330;21.924;2023-07-02T04:55:22;6.22;;;3.53;;
52816;SDS011;38687;43.330;21.924;2023-07-02T04:57:47;6.68;;;3.92;;
52816;SDS011;38687;43.330;21.924;2023-07-02T05:00:13;6.15;;;3.67;;
52816;SDS011;38687;43.330;21.924;2023-07-02T05:02:39;5.97;;;3.65;;
52816;SDS011;38687;43.330;21.924;2023-07-02T05:05:05;7.43;;;3.80;;
52816;SDS011;38687;43.330;21.924;2023-07-02T05:07:31;5.15;;;3.53;;
52816;SDS011;38687;43.330;21.924;2023-07-02T05:09:57;6.97;;;3.80;;
52816;SDS011;38687;43.330;21.924;2023-07-02T05:12:23;7.03;;;3.92;;
52816;SDS011;38687;43.330;21.924;2023-07-02T05:14:48;5.82;;;4.15;;
52816;SDS011;38687;43.330;21.924;2023-07-02T05:17:13;8.07;;;3.80;;
52816;SDS011;38687;43.330;21.924;2023-07-02T05:19:40;6.18;;;4.05;;
52816;SDS011;38687;43.330;21.924;2023-07-02T05:22:06;5.78;;;3.47;;
52816;SDS011;38687;43.330;21.924;2023-07-02T05:24:32;7.60;;;3.95;;
52816;SDS011;38687;43.330;21.924;2023-07-02T05:26:57;7.55;;;4.03;;
52816;SDS011;38687;43.330;21.924;2023-07-02T05:29:23;5.55;;;3.40;;
52816;SDS011;38687;43.330;21.924;2023-07-02T05:31:48;8.35;;;4.10;;
52816;SDS011;38687;43.330;21.924;2023-07-02T05:34:17;7.35;;;3.35;;
52816;SDS011;38687;43.330;21.924;2023-07-02T05:36:42;4.60;;;3.65;;
52816;SDS011;38687;43.330;21.924;2023-07-02T05:39:14;4.68;;;3.38;;
52816;SDS011;38687;43.330;21.924;2023-07-02T05:41:39;5.90;;;3.92;;
52816;SDS011;38687;43.330;21.924;2023-07-02T05:44:05;5.20;;;3.58;;
52816;SDS011;38687;43.330;21.924;2023-07-02T05:46:30;6.68;;;3.70;;
52816;SDS011;38687;43.330;21.924;2023-07-02T05:48:55;6.60;;;3.45;;
52816;SDS011;38687;43.330;21.924;2023-07-02T05:51:22;7.38;;;4.40;;
52816;SDS011;38687;43.330;21.924;2023-07-02T05:53:48;5.00;;;3.60;;
52816;SDS011;38687;43.330;21.924;2023-07-02T05:56:14;6.05;;;3.35;;
52816;SDS011;38687;43.330;21.924;2023-07-02T05:58:42;5.47;;;3.78;;
52816;SDS011;38687;43.330;21.924;2023-07-02T06:01:08;5.20;;;3.67;;
52816;SDS011;38687;43.330;21.924;2023-07-02T06:03:40;7.20;;;4.00;;
52816;SDS011;38687;43.330;21.924;2023-07-02T06:06:05;6.82;;;3.53;;
52816;SDS011;38687;43.330;21.924;2023-07-02T06:08:31;4.85;;;3.38;;
52816;SDS011;38687;43.330;21.924;2023-07-02T06:10:56;8.35;;;4.07;;
52816;SDS011;38687;43.330;21.924;2023-07-02T06:13:24;4.90;;;3.83;;
52816;SDS011;38687;43.330;21.924;2023-07-02T06:15:50;6.80;;;3.88;;
52816;SDS011;38687;43.330;21.924;2023-07-02T06:18:15;9.07;;;3.90;;
52816;SDS011;38687;43.330;21.924;2023-07-02T06:20:42;6.32;;;3.45;;
52816;SDS011;38687;43.330;21.924;2023-07-02T06:23:08;6.00;;;3.65;;
52816;SDS011;38687;43.330;21.924;2023-07-02T06:25:33;5.45;;;3.28;;
52816;SDS011;38687;43.330;21.924;2023-07-02T06:28:02;5.60;;;3.50;;
52816;SDS011;38687;43.330;21.924;2023-07-02T06:30:27;7.43;;;3.30;;
52816;SDS011;38687;43.330;21.924;2023-07-02T06:32:53;6.38;;;3.80;;
52816;SDS011;38687;43.330;21.924;2023-07-02T06:35:19;6.72;;;4.30;;
52816;SDS011;38687;43.330;21.924;2023-07-02T06:37:45;6.25;;;4.03;;
52816;SDS011;38687;43.330;21.924;2023-07-02T06:40:11;6.57;;;4.30;;
52816;SDS011;38687;43.330;21.924;2023-07-02T06:42:39;7.18;;;3.88;;
52816;SDS011;38687;43.330;21.924;2023-07-02T06:45:05;6.90;;;4.20;;
52816;SDS011;38687;43.330;21.924;2023-07-02T06:47:31;8.23;;;4.35;;
52816;SDS011;38687;43.330;21.924;2023-07-02T06:49:57;5.05;;;4.22;;
52816;SDS011;38687;43.330;21.924;2023-07-02T06:52:24;7.90;;;4.68;;
52816;SDS011;38687;43.330;21.924;2023-07-02T06:54:49;6.85;;;4.40;;
52816;SDS011;38687;43.330;21.924;2023-07-02T06:57:15;7.68;;;4.20;;
52816;SDS011;38687;43.330;21.924;2023-07-02T06:59:40;6.40;;;4.18;;
52816;SDS011;38687;43.330;21.924;2023-07-02T07:02:06;8.43;;;3.97;;
52816;SDS011;38687;43.330;21.924;2023-07-02T07:04:31;5.50;;;4.43;;
52816;SDS011;38687;43.330;21.924;2023-07-02T07:06:57;7.47;;;4.25;;
52816;SDS011;38687;43.330;21.924;2023-07-02T07:09:23;6.88;;;4.68;;
52816;SDS011;38687;43.330;21.924;2023-07-02T07:11:48;5.93;;;4.45;;
52816;SDS011;38687;43.330;21.924;2023-07-02T07:14:14;6.70;;;3.70;;
52816;SDS011;38687;43.330;21.924;2023-07-02T07:16:42;7.97;;;5.00;;
52816;SDS011;38687;43.330;21.924;2023-07-02T07:19:14;5.90;;;3.88;;
52816;SDS011;38687;43.330;21.924;2023-07-02T07:21:41;6.50;;;4.07;;
52816;SDS011;38687;43.330;21.924;2023-07-02T07:24:07;10.48;;;4.70;;
52816;SDS011;38687;43.330;21.924;2023-07-02T07:26:33;7.15;;;4.82;;
52816;SDS011;38687;43.330;21.924;2023-07-02T07:28:58;5.35;;;3.83;;
52816;SDS011;38687;43.330;21.924;2023-07-02T07:31:24;6.82;;;4.00;;
52816;SDS011;38687;43.330;21.924;2023-07-02T07:33:49;9.27;;;4.55;;
52816;SDS011;38687;43.330;21.924;2023-07-02T07:36:15;5.05;;;3.88;;
52816;SDS011;38687;43.330;21.924;2023-07-02T07:38:42;7.60;;;3.58;;
52816;SDS011;38687;43.330;21.924;2023-07-02T07:41:10;7.32;;;3.58;;
52816;SDS011;38687;43.330;21.924;2023-07-02T07:43:36;7.05;;;3.97;;
52816;SDS011;38687;43.330;21.924;2023-07-02T07:46:01;5.72;;;3.40;;
52816;SDS011;38687;43.330;21.924;2023-07-02T07:48:27;5.28;;;3.67;;
52816;SDS011;38687;43.330;21.924;2023-07-02T07:50:52;6.30;;;3.53;;
52816;SDS011;38687;43.330;21.924;2023-07-02T07:53:18;6.60;;;3.72;;
52816;SDS011;38687;43.330;21.924;2023-07-02T07:55:43;7.15;;;3.88;;
52816;SDS011;38687;43.330;21.924;2023-07-02T07:58:08;5.47;;;3.58;;
52816;SDS011;38687;43.330;21.924;2023-07-02T08:00:34;4.75;;;3.60;;
52816;SDS011;38687;43.330;21.924;2023-07-02T08:02:59;5.30;;;3.78;;
52816;SDS011;38687;43.330;21.924;2023-07-02T08:05:26;4.68;;;3.38;;
52816;SDS011;38687;43.330;21.924;2023-07-02T08:07:51;6.63;;;4.53;;
52816;SDS011;38687;43.330;21.924;2023-07-02T08:10:18;5.93;;;3.97;;
52816;SDS011;38687;43.330;21.924;2023-07-02T08:12:44;5.15;;;3.30;;
52816;SDS011;38687;43.330;21.924;2023-07-02T08:15:10;7.28;;;3.50;;
52816;SDS011;38687;43.330;21.924;2023-07-02T08:17:36;5.72;;;3.50;;
52816;SDS011;38687;43.330;21.924;2023-07-02T08:20:01;6.93;;;3.90;;
52816;SDS011;38687;43.330;21.924;2023-07-02T08:22:29;6.65;;;3.88;;
52816;SDS011;38687;43.330;21.924;2023-07-02T08:24:55;6.90;;;3.85;;
52816;SDS011;38687;43.330;21.924;2023-07-02T08:27:20;5.70;;;3.53;;
52816;SDS011;38687;43.330;21.924;2023-07-02T08:29:46;5.80;;;4.10;;
52816;SDS011;38687;43.330;21.924;2023-07-02T08:32:12;6.68;;;3.92;;
52816;SDS011;38687;43.330;21.924;2023-07-02T08:34:38;6.45;;;3.65;;
52816;SDS011;38687;43.330;21.924;2023-07-02T08:37:03;6.88;;;4.03;;
52816;SDS011;38687;43.330;21.924;2023-07-02T08:39:29;6.32;;;4.38;;
52816;SDS011;38687;43.330;21.924;2023-07-02T08:41:54;8.07;;;4.10;;
52816;SDS011;38687;43.330;21.924;2023-07-02T08:44:20;6.60;;;4.15;;
52816;SDS011;38687;43.330;21.924;2023-07-02T08:46:49;8.38;;;4.45;;
52816;SDS011;38687;43.330;21.924;2023-07-02T08:49:16;7.75;;;4.38;;
52816;SDS011;38687;43.330;21.924;2023-07-02T08:51:42;7.75;;;4.82;;
52816;SDS011;38687;43.330;21.924;2023-07-02T08:54:10;10.13;;;4.28;;
52816;SDS011;38687;43.330;21.924;2023-07-02T08:56:35;7.68;;;4.65;;
52816;SDS011;38687;43.330;21.924;2023-07-02T08:59:01;10.73;;;4.70;;
52816;SDS011;38687;43.330;21.924;2023-07-02T09:01:26;8.00;;;4.88;;
52816;SDS011;38687;43.330;21.924;2023-07-02T09:03:57;6.50;;;4.32;;
52816;SDS011;38687;43.330;21.924;2023-07-02T09:06:25;10.27;;;4.75;;
52816;SDS011;38687;43.330;21.924;2023-07-02T09:08:50;6.55;;;4.55;;
52816;SDS011;38687;43.330;21.924;2023-07-02T09:11:21;9.57;;;4.53;;
52816;SDS011;38687;43.330;21.924;2023-07-02T09:13:50;8.45;;;4.60;;
52816;SDS011;38687;43.330;21.924;2023-07-02T09:19:05;7.10;;;4.45;;
52816;SDS011;38687;43.330;21.924;2023-07-02T09:24:12;8.68;;;4.72;;
52816;SDS011;38687;43.330;21.924;2023-07-02T09:26:44;12.02;;;4.72;;
52816;SDS011;38687;43.330;21.924;2023-07-02T09:29:23;9.82;;;5.88;;
52816;SDS011;38687;43.330;21.924;2023-07-02T09:31:49;7.30;;;4.68;;
52816;SDS011;38687;43.330;21.924;2023-07-02T09:34:15;7.68;;;4.75;;
52816;SDS011;38687;43.330;21.924;2023-07-02T09:36:41;9.90;;;5.10;;
52816;SDS011;38687;43.330;21.924;2023-07-02T09:39:28;7.05;;;4.30;;
52816;SDS011;38687;43.330;21.924;2023-07-02T09:41:57;7.50;;;4.85;;
52816;SDS011;38687;43.330;21.924;2023-07-02T09:44:25;7.78;;;4.90;;
52816;SDS011;38687;43.330;21.924;2023-07-02T09:46:56;7.10;;;4.78;;
52816;SDS011;38687;43.330;21.924;2023-07-02T09:49:26;7.78;;;4.82;;
52816;SDS011;38687;43.330;21.924;2023-07-02T09:51:52;9.32;;;4.55;;
52816;SDS011;38687;43.330;21.924;2023-07-02T09:54:18;6.63;;;4.25;;
52816;SDS011;38687;43.330;21.924;2023-07-02T09:56:49;6.85;;;4.43;;
52816;SDS011;38687;43.330;21.924;2023-07-02T09:59:14;4.95;;;3.88;;
52816;SDS011;38687;43.330;21.924;2023-07-02T10:01:40;6.78;;;4.95;;
52816;SDS011;38687;43.330;21.924;2023-07-02T10:04:15;8.85;;;4.90;;
52816;SDS011;38687;43.330;21.924;2023-07-02T10:09:16;8.00;;;5.35;;
52816;SDS011;38687;43.330;21.924;2023-07-02T10:11:42;8.02;;;5.07;;
52816;SDS011;38687;43.330;21.924;2023-07-02T10:14:10;10.15;;;5.28;;
52816;SDS011;38687;43.330;21.924;2023-07-02T10:16:55;6.38;;;4.97;;
52816;SDS011;38687;43.330;21.924;2023-07-02T10:19:20;9.25;;;5.28;;
52816;SDS011;38687;43.330;21.924;2023-07-02T10:21:46;8.95;;;4.90;;
52816;SDS011;38687;43.330;21.924;2023-07-02T10:24:25;7.65;;;4.60;;
52816;SDS011;38687;43.330;21.924;2023-07-02T10:26:51;8.52;;;5.00;;
52816;SDS011;38687;43.330;21.924;2023-07-02T10:29:21;6.85;;;4.80;;
52816;SDS011;38687;43.330;21.924;2023-07-02T10:31:48;8.68;;;5.07;;
52816;SDS011;38687;43.330;21.924;2023-07-02T10:34:30;5.55;;;4.45;;
52816;SDS011;38687;43.330;21.924;2023-07-02T10:36:57;6.78;;;4.78;;
52816;SDS011;38687;43.330;21.924;2023-07-02T10:39:29;6.82;;;4.75;;
52816;SDS011;38687;43.330;21.924;2023-07-02T10:42:05;9.05;;;5.30;;
52816;SDS011;38687;43.330;21.924;2023-07-02T10:44:35;8.68;;;5.30;;
52816;SDS011;38687;43.330;21.924;2023-07-02T10:47:14;7.28;;;4.80;;
52816;SDS011;38687;43.330;21.924;2023-07-02T10:49:40;5.97;;;5.07;;
52816;SDS011;38687;43.330;21.924;2023-07-02T10:52:05;7.55;;;4.82;;
52816;SDS011;38687;43.330;21.924;2023-07-02T10:54:42;7.75;;;5.30;;
52816;SDS011;38687;43.330;21.924;2023-07-02T10:57:08;8.48;;;5.97;;
52816;SDS011;38687;43.330;21.924;2023-07-02T10:59:34;8.18;;;6.25;;
52816;SDS011;38687;43.330;21.924;2023-07-02T11:01:59;8.90;;;6.50;;
52816;SDS011;38687;43.330;21.924;2023-07-02T11:04:27;9.00;;;6.85;;
52816;SDS011;38687;43.330;21.924;2023-07-02T11:06:53;10.75;;;7.35;;
52816;SDS011;38687;43.330;21.924;2023-07-02T11:09:18;11.40;;;8.50;;
52816;SDS011;38687;43.330;21.924;2023-07-02T11:11:53;11.32;;;9.48;;
52816;SDS011;38687;43.330;21.924;2023-07-02T11:14:33;13.10;;;10.38;;
52816;SDS011;38687;43.330;21.924;2023-07-02T11:16:59;10.68;;;9.50;;
52816;SDS011;38687;43.330;21.924;2023-07-02T11:19:28;13.20;;;9.88;;
52816;SDS011;38687;43.330;21.924;2023-07-02T11:21:55;13.90;;;10.88;;
52816;SDS011;38687;43.330;21.924;2023-07-02T11:24:40;12.80;;;10.18;;
52816;SDS011;38687;43.330;21.924;2023-07-02T11:27:06;14.75;;;10.38;;
52816;SDS011;38687;43.330;21.924;2023-07-02T11:29:33;10.88;;;8.82;;
52816;SDS011;38687;43.330;21.924;2023-07-02T11:32:08;11.93;;;9.60;;
52816;SDS011;38687;43.330;21.924;2023-07-02T11:34:35;13.50;;;9.80;;
52816;SDS011;38687;43.330;21.924;2023-07-02T11:37:01;13.50;;;9.55;;
52816;SDS011;38687;43.330;21.924;2023-07-02T11:39:26;12.75;;;10.43;;
52816;SDS011;38687;43.330;21.924;2023-07-02T11:41:52;15.23;;;10.48;;
52816;SDS011;38687;43.330;21.924;2023-07-02T11:44:18;12.23;;;10.48;;
52816;SDS011;38687;43.330;21.924;2023-07-02T11:46:44;13.80;;;9.93;;
52816;SDS011;38687;43.330;21.924;2023-07-02T11:49:09;13.30;;;9.43;;
52816;SDS011;38687;43.330;21.924;2023-07-02T11:51:35;12.85;;;10.07;;
52816;SDS011;38687;43.330;21.924;2023-07-02T11:54:02;11.23;;;9.32;;
52816;SDS011;38687;43.330;21.924;2023-07-02T11:56:28;11.75;;;8.88;;
52816;SDS011;38687;43.330;21.924;2023-07-02T11:58:53;13.50;;;9.18;;
52816;SDS011;38687;43.330;21.924;2023-07-02T12:01:19;12.55;;;9.77;;
52816;SDS011;38687;43.330;21.924;2023-07-02T12:03:44;10.70;;;9.00;;
52816;SDS011;38687;43.330;21.924;2023-07-02T12:06:10;11.10;;;9.32;;
52816;SDS011;38687;43.330;21.924;2023-07-02T12:08:36;14.13;;;10.20;;
52816;SDS011;38687;43.330;21.924;2023-07-02T12:11:01;14.95;;;10.55;;
52816;SDS011;38687;43.330;21.924;2023-07-02T12:13:26;12.25;;;10.50;;
52816;SDS011;38687;43.330;21.924;2023-07-02T12:15:52;15.30;;;12.15;;
52816;SDS011;38687;43.330;21.924;2023-07-02T12:18:17;14.93;;;12.27;;
52816;SDS011;38687;43.330;21.924;2023-07-02T12:20:43;16.60;;;12.55;;
52816;SDS011;38687;43.330;21.924;2023-07-02T12:23:08;15.73;;;12.40;;
52816;SDS011;38687;43.330;21.924;2023-07-02T12:25:35;13.82;;;11.27;;
52816;SDS011;38687;43.330;21.924;2023-07-02T12:28:01;14.23;;;11.95;;
52816;SDS011;38687;43.330;21.924;2023-07-02T12:30:28;13.70;;;10.85;;
52816;SDS011;38687;43.330;21.924;2023-07-02T12:32:53;14.27;;;11.60;;
52816;SDS011;38687;43.330;21.924;2023-07-02T12:35:19;14.40;;;11.35;;
52816;SDS011;38687;43.330;21.924;2023-07-02T12:37:45;15.15;;;10.93;;
52816;SDS011;38687;43.330;21.924;2023-07-02T12:40:12;15.60;;;10.43;;
52816;SDS011;38687;43.330;21.924;2023-07-02T12:42:41;13.43;;;10.13;;
52816;SDS011;38687;43.330;21.924;2023-07-02T12:45:08;11.25;;;9.00;;
52816;SDS011;38687;43.330;21.924;2023-07-02T12:47:34;10.60;;;8.63;;
52816;SDS011;38687;43.330;21.924;2023-07-02T12:49:59;10.77;;;8.77;;
52816;SDS011;38687;43.330;21.924;2023-07-02T12:52:25;12.18;;;8.95;;
52816;SDS011;38687;43.330;21.924;2023-07-02T12:54:50;11.00;;;8.68;;
52816;SDS011;38687;43.330;21.924;2023-07-02T12:57:16;10.88;;;8.77;;
52816;SDS011;38687;43.330;21.924;2023-07-02T12:59:42;11.23;;;8.38;;
52816;SDS011;38687;43.330;21.924;2023-07-02T13:02:09;12.57;;;8.80;;
52816;SDS011;38687;43.330;21.924;2023-07-02T13:04:35;10.30;;;8.35;;
52816;SDS011;38687;43.330;21.924;2023-07-02T13:07:00;12.13;;;9.18;;
52816;SDS011;38687;43.330;21.924;2023-07-02T13:09:26;11.13;;;8.65;;
52816;SDS011;38687;43.330;21.924;2023-07-02T13:11:51;11.57;;;8.05;;
52816;SDS011;38687;43.330;21.924;2023-07-02T13:14:17;10.32;;;8.27;;
52816;SDS011;38687;43.330;21.924;2023-07-02T13:16:42;12.75;;;9.32;;
52816;SDS011;38687;43.330;21.924;2023-07-02T13:19:07;11.75;;;8.73;;
52816;SDS011;38687;43.330;21.924;2023-07-02T13:21:33;13.38;;;10.38;;
52816;SDS011;38687;43.330;21.924;2023-07-02T13:23:58;14.85;;;10.75;;
52816;SDS011;38687;43.330;21.924;2023-07-02T13:26:24;16.13;;;10.95;;
52816;SDS011;38687;43.330;21.924;2023-07-02T13:28:49;14.10;;;10.77;;
52816;SDS011;38687;43.330;21.924;2023-07-02T13:31:15;15.43;;;10.43;;
52816;SDS011;38687;43.330;21.924;2023-07-02T13:33:41;13.68;;;10.45;;
52816;SDS011;38687;43.330;21.924;2023-07-02T13:36:07;14.90;;;10.85;;
52816;SDS011;38687;43.330;21.924;2023-07-02T13:38:33;14.07;;;10.93;;
52816;SDS011;38687;43.330;21.924;2023-07-02T13:40:58;12.82;;;10.40;;
52816;SDS011;38687;43.330;21.924;2023-07-02T13:43:24;14.32;;;10.35;;
52816;SDS011;38687;43.330;21.924;2023-07-02T13:45:50;16.05;;;11.52;;
52816;SDS011;38687;43.330;21.924;2023-07-02T13:48:15;14.82;;;11.15;;
52816;SDS011;38687;43.330;21.924;2023-07-02T13:50:41;13.00;;;10.23;;
52816;SDS011;38687;43.330;21.924;2023-07-02T13:53:07;17.23;;;11.35;;
52816;SDS011;38687;43.330;21.924;2023-07-02T13:55:33;15.15;;;11.13;;
52816;SDS011;38687;43.330;21.924;2023-07-02T13:57:58;12.68;;;10.15;;
52816;SDS011;38687;43.330;21.924;2023-07-02T14:00:26;15.00;;;9.65;;
52816;SDS011;38687;43.330;21.924;2023-07-02T14:02:52;11.98;;;9.55;;
52816;SDS011;38687;43.330;21.924;2023-07-02T14:05:17;12.98;;;9.63;;
52816;SDS011;38687;43.330;21.924;2023-07-02T14:07:45;12.52;;;9.30;;
52816;SDS011;38687;43.330;21.924;2023-07-02T14:10:11;12.75;;;8.30;;
52816;SDS011;38687;43.330;21.924;2023-07-02T14:12:40;9.73;;;7.75;;
52816;SDS011;38687;43.330;21.924;2023-07-02T14:15:07;8.63;;;6.65;;
52816;SDS011;38687;43.330;21.924;2023-07-02T14:17:33;7.97;;;6.25;;
52816;SDS011;38687;43.330;21.924;2023-07-02T14:19:58;8.35;;;5.78;;
52816;SDS011;38687;43.330;21.924;2023-07-02T14:22:24;7.10;;;5.65;;
52816;SDS011;38687;43.330;21.924;2023-07-02T14:24:49;7.35;;;6.25;;
52816;SDS011;38687;43.330;21.924;2023-07-02T14:27:15;7.57;;;5.82;;
52816;SDS011;38687;43.330;21.924;2023-07-02T14:29:40;8.40;;;6.05;;
52816;SDS011;38687;43.330;21.924;2023-07-02T14:32:06;7.18;;;5.97;;
52816;SDS011;38687;43.330;21.924;2023-07-02T14:34:32;8.25;;;6.20;;
52816;SDS011;38687;43.330;21.924;2023-07-02T14:36:58;9.00;;;7.28;;
52816;SDS011;38687;43.330;21.924;2023-07-02T14:39:23;7.57;;;6.13;;